Weather reports worldwide

Advertisment
Glasgow/Intl, United Kingdom (3140): temperature & dewpoint: 12.08.2019 02:00:00 - 18.08.2019 02:00:00 (BST)Glasgow/Intl, United Kingdom (3140): wind speed: 12.08.2019 02:00:00 - 18.08.2019 02:00:00 (BST)Glasgow/Intl, United Kingdom (3140): wind direction: 12.08.2019 02:00:00 - 18.08.2019 02:00:00 (BST)Glasgow/Intl, United Kingdom (3140): visibility: 12.08.2019 02:00:00 - 18.08.2019 02:00:00 (BST)
Date & Time tt [°C] td [°C] ff [km/h] ff [kn] dd vv [km]
18.08.2019 02:00:00 13,0 11,0 29 16 SSW 10
18.08.2019 01:00:00 14,0 11,0 29 16 SSW 10
18.08.2019 00:00:00 14,0 11,0 28 15 SSW 10
17.08.2019 23:00:00 14,0 10,0 28 15 SSW 10
17.08.2019 22:00:00 14,0 10,0 28 15 SSW 10
17.08.2019 21:00:00 14,0 11,0 26 14 SSW 10
17.08.2019 20:00:00 14,0 11,0 16 9 SW 10
17.08.2019 19:00:00 14,0 12,0 28 15 SSW 10
17.08.2019 18:00:00 15,0 10,0 28 15 SSW 10
17.08.2019 17:00:00 14,0 10,0 44 24 SW 10
17.08.2019 16:00:00 17,0 9,0 37 20 SSW 10
17.08.2019 15:00:00 17,0 11,0 35 19 SSW 10
17.08.2019 14:00:00 16,0 9,0 39 21 SW 10
17.08.2019 13:00:00 17,0 10,0 44 24 SW 10
17.08.2019 12:00:00 16,0 10,0 41 22 SW 10
17.08.2019 11:00:00 16,0 11,0 34 18 SW 10
17.08.2019 10:00:00 16,0 11,0 35 19 SW 10
17.08.2019 09:00:00 15,0 11,0 28 15 SW 10
17.08.2019 08:00:00 13,0 11,0 24 13 SW 10
17.08.2019 07:00:00 12,0 11,0 16 9 SW 10
17.08.2019 06:00:00 13,0 10,0 16 9 WSW 10
17.08.2019 05:00:00 13,0 11,0 18 10 WSW 10
17.08.2019 04:00:00 14,0 13,0 26 14 SW 10
17.08.2019 03:00:00 15,0 13,0 24 13 SSW 10
17.08.2019 02:00:00 14,0 12,0 21 11 SW 10
17.08.2019 01:00:00 15,0 13,0 24 13 SSW 10
17.08.2019 00:00:00 14,0 14,0 4 2 NW 10
16.08.2019 23:00:00 14,0 13,0 9 5 SW 10
16.08.2019 22:00:00 14,0 13,0 8 4 SW 10
16.08.2019 21:00:00 16,0 15,0 11 6 WSW 10
16.08.2019 20:00:00 19,0 15,0 28 15 S 10
16.08.2019 19:00:00 18,0 15,0 9 5 SW 10
16.08.2019 18:00:00 18,0 15,0 29 16 SW 10
16.08.2019 17:00:00 20,0 14,0 28 15 SSW 10
16.08.2019 16:00:00 20,0 15,0 31 17 SW 10
16.08.2019 15:00:00 19,0 16,0 31 17 SSW 10
16.08.2019 14:00:00 18,0 16,0 31 17 SSW 10
16.08.2019 13:00:00 16,0 15,0 26 14 S 10
16.08.2019 12:00:00 16,0 15,0 26 14 S 4,9
16.08.2019 11:00:00 15,0 14,0 26 14 S 2,6
16.08.2019 10:00:00 15,0 13,0 24 13 S 3,8
16.08.2019 09:00:00 15,0 14,0 18 10 S 10
16.08.2019 08:00:00 14,0 13,0 15 8 SSE 10
16.08.2019 07:00:00 15,0 13,0 21 11 S 10
16.08.2019 06:00:00 14,0 14,0 9 5 S 10
16.08.2019 05:00:00 14,0 14,0 8 4 SE 7
16.08.2019 04:00:00 15,0 13,0 13 7 SSE 10
16.08.2019 03:00:00 15,0 13,0 5 3 - 10
16.08.2019 02:00:00 14,0 13,0 9 5 ESE 10
16.08.2019 01:00:00 14,0 13,0 8 4 SW 10
16.08.2019 00:00:00 14,0 13,0 15 8 SSW 5
15.08.2019 23:00:00 15,0 11,0 11 6 S 10
15.08.2019 22:00:00 14,0 10,0 11 6 SSW 10
15.08.2019 21:00:00 15,0 10,0 8 4 SW 10
15.08.2019 20:00:00 16,0 10,0 11 6 S 10
15.08.2019 19:00:00 16,0 10,0 15 8 WSW 10
15.08.2019 18:00:00 17,0 9,0 18 10 W 10
15.08.2019 17:00:00 17,0 8,0 24 13 W 10
15.08.2019 16:00:00 17,0 8,0 24 13 WSW 10
15.08.2019 15:00:00 16,0 8,0 28 15 W 10
15.08.2019 14:00:00 17,0 8,0 24 13 W 10
15.08.2019 13:00:00 17,0 9,0 22 12 W 10
15.08.2019 12:00:00 16,0 9,0 26 14 WNW 10
15.08.2019 11:00:00 15,0 9,0 26 14 WNW 10
15.08.2019 10:00:00 14,0 10,0 24 13 W 10
15.08.2019 09:00:00 13,0 11,0 28 15 W 10
15.08.2019 08:00:00 13,0 12,0 16 9 W 10
15.08.2019 07:00:00 14,0 12,0 26 14 W 10
15.08.2019 06:00:00 14,0 13,0 11 6 WSW 10
15.08.2019 05:00:00 13,0 12,0 13 7 SW 10
15.08.2019 04:00:00 14,0 14,0 11 6 WSW 10
15.08.2019 03:00:00 14,0 14,0 15 8 SW 10
15.08.2019 02:00:00 14,0 14,0 4 2 SSW 6
15.08.2019 01:00:00 14,0 13,0 5 3 SW 10
15.08.2019 00:00:00 13,0 12,0 8 4 WSW 10
14.08.2019 23:00:00 15,0 14,0 11 6 SW 10
14.08.2019 22:00:00 15,0 15,0 5 3 - 10
14.08.2019 21:00:00 15,0 15,0 4 2 - 3,6
14.08.2019 20:00:00 15,0 15,0 9 5 E 6
14.08.2019 19:00:00 15,0 15,0 9 5 E 3,5
14.08.2019 18:00:00 15,0 14,0 11 6 ENE 3,4
14.08.2019 17:00:00 15,0 14,0 15 8 ENE 4,0
14.08.2019 16:00:00 14,0 14,0 15 8 ENE 10
14.08.2019 15:00:00 14,0 13,0 11 6 ENE 10
14.08.2019 14:00:00 14,0 13,0 11 6 NE 8
14.08.2019 13:00:00 14,0 12,0 15 8 E 9
14.08.2019 12:00:00 14,0 12,0 13 7 ENE 10
14.08.2019 11:00:00 13,0 12,0 11 6 E 10
14.08.2019 10:00:00 13,0 11,0 11 6 ENE 10
14.08.2019 09:00:00 12,0 11,0 9 5 NE 10
14.08.2019 08:00:00 11,0 10,0 9 5 ENE 10
14.08.2019 07:00:00 11,0 9,0 9 5 ENE 10
14.08.2019 06:00:00 10,0 9,0 8 4 ENE 10
14.08.2019 05:00:00 10,0 9,0 5 3 ENE 10
14.08.2019 04:00:00 10,0 9,0 8 4 ENE 10
14.08.2019 03:00:00 10,0 9,0 5 3 NE 10
14.08.2019 02:00:00 10,0 9,0 5 3 NNE 10
14.08.2019 01:00:00 9,0 8,0 5 3 N 10
14.08.2019 00:00:00 10,0 7,0 5 3 - 10
13.08.2019 23:00:00 9,0 7,0 11 6 SSW 10
13.08.2019 22:00:00 11,0 7,0 4 2 W 10
13.08.2019 21:00:00 12,0 7,0 8 4 SW 10
13.08.2019 20:00:00 15,0 7,0 13 7 W 10
13.08.2019 19:00:00 16,0 7,0 21 11 W 10
13.08.2019 18:00:00 16,0 8,0 21 11 WNW 10
13.08.2019 17:00:00 17,0 9,0 24 13 WSW 10
13.08.2019 16:00:00 15,0 9,0 28 15 WSW 10
13.08.2019 15:00:00 17,0 9,0 24 13 W 10
13.08.2019 14:00:00 15,0 9,0 16 9 NW 10
13.08.2019 13:00:00 15,0 10,0 21 11 WSW 10
13.08.2019 12:00:00 14,0 11,0 16 9 SW 10
13.08.2019 11:00:00 15,0 9,0 16 9 W 10
13.08.2019 10:00:00 14,0 10,0 15 8 W 10
13.08.2019 09:00:00 13,0 11,0 8 4 W 10
13.08.2019 08:00:00 11,0 10,0 9 5 WSW 10
13.08.2019 07:00:00 9,0 9,0 9 5 W 10
13.08.2019 06:00:00 7,0 7,0 2 1 - 5
13.08.2019 05:00:00 7,0 7,0 4 2 - 2,0
13.08.2019 04:00:00 8,0 8,0 4 2 - 10
13.08.2019 03:00:00 7,0 7,0 2 1 - 7
13.08.2019 02:00:00 8,0 7,0 2 1 - 1,9
13.08.2019 01:00:00 8,0 8,0 4 2 - 10
13.08.2019 00:00:00 9,0 8,0 8 4 W 10
12.08.2019 23:00:00 10,0 9,0 8 4 WSW 10
12.08.2019 22:00:00 10,0 9,0 8 4 WSW 10
12.08.2019 21:00:00 12,0 10,0 9 5 W 10
12.08.2019 20:00:00 13,0 10,0 11 6 SW 10
12.08.2019 19:00:00 13,0 9,0 16 9 WSW 10
12.08.2019 18:00:00 15,0 10,0 13 7 W 10
12.08.2019 17:00:00 14,0 11,0 16 9 WNW 10
12.08.2019 16:00:00 14,0 10,0 15 8 WNW 10
12.08.2019 15:00:00 15,0 9,0 13 7 SW 10
12.08.2019 14:00:00 15,0 8,0 8 4 SW 10
12.08.2019 13:00:00 14,0 9,0 9 5 W 10
12.08.2019 12:00:00 15,0 8,0 8 4 WNW 10
12.08.2019 11:00:00 14,0 9,0 11 6 NW 10
12.08.2019 10:00:00 13,0 9,0 9 5 W 10
12.08.2019 09:00:00 12,0 9,0 5 3 - 10
12.08.2019 08:00:00 10,0 8,0 8 4 WSW 10
12.08.2019 07:00:00 8,0 7,0 8 4 WSW 10
12.08.2019 06:00:00 7,0 6,0 8 4 SW 10
12.08.2019 05:00:00 8,0 7,0 9 5 SW 10
12.08.2019 04:00:00 10,0 8,0 8 4 WSW 10
12.08.2019 03:00:00 10,0 9,0 8 4 W 10
12.08.2019 02:00:00 10,0 10,0 9 5 WSW 10

tt = temperature
td = dewpoint
ff = wind speed
dd = wind direction
vv = visibility

Next stations